sensor_id;sensor_type;location;lat;lon;timestamp;P1;durP1;ratioP1;P2;durP2;ratioP2
17414;SDS011;8825;48.086;16.426;2023-03-04T00:00:30;33.97;;;26.73;;
17414;SDS011;8825;48.086;16.426;2023-03-04T00:02:58;32.93;;;26.20;;
17414;SDS011;8825;48.086;16.426;2023-03-04T00:05:25;33.53;;;26.93;;
17414;SDS011;8825;48.086;16.426;2023-03-04T00:07:53;37.53;;;28.63;;
17414;SDS011;8825;48.086;16.426;2023-03-04T00:10:20;32.30;;;26.20;;
17414;SDS011;8825;48.086;16.426;2023-03-04T00:12:48;33.00;;;26.97;;
17414;SDS011;8825;48.086;16.426;2023-03-04T00:15:15;35.08;;;27.62;;
17414;SDS011;8825;48.086;16.426;2023-03-04T00:17:43;34.75;;;26.40;;
17414;SDS011;8825;48.086;16.426;2023-03-04T00:20:11;32.88;;;26.85;;
17414;SDS011;8825;48.086;16.426;2023-03-04T00:22:40;36.23;;;27.93;;
17414;SDS011;8825;48.086;16.426;2023-03-04T00:25:07;34.15;;;26.65;;
17414;SDS011;8825;48.086;16.426;2023-03-04T00:27:35;31.37;;;25.77;;
17414;SDS011;8825;48.086;16.426;2023-03-04T00:30:03;33.20;;;26.65;;
17414;SDS011;8825;48.086;16.426;2023-03-04T00:32:32;31.35;;;25.02;;
17414;SDS011;8825;48.086;16.426;2023-03-04T00:34:59;34.53;;;26.87;;
17414;SDS011;8825;48.086;16.426;2023-03-04T00:37:27;33.98;;;27.00;;
17414;SDS011;8825;48.086;16.426;2023-03-04T00:39:54;33.53;;;26.35;;
17414;SDS011;8825;48.086;16.426;2023-03-04T00:42:22;33.58;;;26.62;;
17414;SDS011;8825;48.086;16.426;2023-03-04T00:44:49;36.20;;;28.87;;
17414;SDS011;8825;48.086;16.426;2023-03-04T00:47:17;36.88;;;28.23;;
17414;SDS011;8825;48.086;16.426;2023-03-04T00:49:44;35.23;;;27.95;;
17414;SDS011;8825;48.086;16.426;2023-03-04T00:52:12;34.18;;;27.27;;
17414;SDS011;8825;48.086;16.426;2023-03-04T00:54:39;34.45;;;27.67;;
17414;SDS011;8825;48.086;16.426;2023-03-04T00:57:07;39.78;;;29.60;;
17414;SDS011;8825;48.086;16.426;2023-03-04T00:59:35;35.23;;;27.77;;
17414;SDS011;8825;48.086;16.426;2023-03-04T01:02:02;33.25;;;26.45;;
17414;SDS011;8825;48.086;16.426;2023-03-04T01:04:30;32.55;;;26.33;;
17414;SDS011;8825;48.086;16.426;2023-03-04T01:06:57;36.58;;;28.00;;
17414;SDS011;8825;48.086;16.426;2023-03-04T01:09:25;31.17;;;24.50;;
17414;SDS011;8825;48.086;16.426;2023-03-04T01:11:52;33.45;;;26.55;;
17414;SDS011;8825;48.086;16.426;2023-03-04T01:14:20;35.13;;;27.87;;
17414;SDS011;8825;48.086;16.426;2023-03-04T01:16:48;33.30;;;27.27;;
17414;SDS011;8825;48.086;16.426;2023-03-04T01:19:16;34.98;;;27.87;;
17414;SDS011;8825;48.086;16.426;2023-03-04T01:21:43;39.20;;;29.60;;
17414;SDS011;8825;48.086;16.426;2023-03-04T01:24:11;32.63;;;26.87;;
17414;SDS011;8825;48.086;16.426;2023-03-04T01:26:39;37.48;;;29.48;;
17414;SDS011;8825;48.086;16.426;2023-03-04T01:29:06;36.05;;;29.05;;
17414;SDS011;8825;48.086;16.426;2023-03-04T01:31:34;36.25;;;29.25;;
17414;SDS011;8825;48.086;16.426;2023-03-04T01:34:01;36.30;;;29.07;;
17414;SDS011;8825;48.086;16.426;2023-03-04T01:36:29;38.58;;;29.92;;
17414;SDS011;8825;48.086;16.426;2023-03-04T01:38:56;37.15;;;29.37;;
17414;SDS011;8825;48.086;16.426;2023-03-04T01:41:24;38.25;;;29.18;;
17414;SDS011;8825;48.086;16.426;2023-03-04T01:43:54;36.68;;;28.60;;
17414;SDS011;8825;48.086;16.426;2023-03-04T01:46:25;36.08;;;27.60;;
17414;SDS011;8825;48.086;16.426;2023-03-04T01:48:52;39.00;;;29.35;;
17414;SDS011;8825;48.086;16.426;2023-03-04T01:51:20;40.98;;;30.10;;
17414;SDS011;8825;48.086;16.426;2023-03-04T01:53:49;35.45;;;28.62;;
17414;SDS011;8825;48.086;16.426;2023-03-04T01:56:27;36.25;;;27.52;;
17414;SDS011;8825;48.086;16.426;2023-03-04T01:59:05;35.88;;;28.05;;
17414;SDS011;8825;48.086;16.426;2023-03-04T02:01:34;35.43;;;28.02;;
17414;SDS011;8825;48.086;16.426;2023-03-04T02:04:03;37.48;;;27.70;;
17414;SDS011;8825;48.086;16.426;2023-03-04T02:06:33;33.45;;;27.10;;
17414;SDS011;8825;48.086;16.426;2023-03-04T02:09:02;33.35;;;25.65;;
17414;SDS011;8825;48.086;16.426;2023-03-04T02:11:32;35.85;;;27.22;;
17414;SDS011;8825;48.086;16.426;2023-03-04T02:14:00;32.30;;;26.15;;
17414;SDS011;8825;48.086;16.426;2023-03-04T02:16:28;35.83;;;28.75;;
17414;SDS011;8825;48.086;16.426;2023-03-04T02:18:57;36.77;;;27.98;;
17414;SDS011;8825;48.086;16.426;2023-03-04T02:21:26;39.15;;;28.75;;
17414;SDS011;8825;48.086;16.426;2023-03-04T02:26:32;32.80;;;26.00;;
17414;SDS011;8825;48.086;16.426;2023-03-04T02:29:00;32.60;;;25.37;;
17414;SDS011;8825;48.086;16.426;2023-03-04T02:31:33;28.27;;;23.47;;
17414;SDS011;8825;48.086;16.426;2023-03-04T02:36:46;26.90;;;21.12;;
17414;SDS011;8825;48.086;16.426;2023-03-04T02:39:27;27.73;;;21.00;;
17414;SDS011;8825;48.086;16.426;2023-03-04T02:42:00;25.37;;;19.23;;
17414;SDS011;8825;48.086;16.426;2023-03-04T02:44:30;26.57;;;20.60;;
17414;SDS011;8825;48.086;16.426;2023-03-04T02:47:00;25.12;;;18.87;;
17414;SDS011;8825;48.086;16.426;2023-03-04T02:49:29;22.45;;;18.23;;
17414;SDS011;8825;48.086;16.426;2023-03-04T02:51:59;22.82;;;17.27;;
17414;SDS011;8825;48.086;16.426;2023-03-04T02:54:29;24.15;;;18.25;;
17414;SDS011;8825;48.086;16.426;2023-03-04T02:56:58;21.82;;;17.32;;
17414;SDS011;8825;48.086;16.426;2023-03-04T02:59:27;21.25;;;16.35;;
17414;SDS011;8825;48.086;16.426;2023-03-04T03:01:55;20.95;;;16.20;;
17414;SDS011;8825;48.086;16.426;2023-03-04T03:04:23;18.10;;;14.95;;
17414;SDS011;8825;48.086;16.426;2023-03-04T03:06:52;20.62;;;16.15;;
17414;SDS011;8825;48.086;16.426;2023-03-04T03:09:19;18.92;;;15.30;;
17414;SDS011;8825;48.086;16.426;2023-03-04T03:11:47;20.82;;;15.90;;
17414;SDS011;8825;48.086;16.426;2023-03-04T03:14:14;19.85;;;15.32;;
17414;SDS011;8825;48.086;16.426;2023-03-04T03:16:42;23.55;;;17.15;;
17414;SDS011;8825;48.086;16.426;2023-03-04T03:19:09;21.07;;;16.27;;
17414;SDS011;8825;48.086;16.426;2023-03-04T03:21:37;18.60;;;15.72;;
17414;SDS011;8825;48.086;16.426;2023-03-04T03:24:05;21.62;;;16.90;;
17414;SDS011;8825;48.086;16.426;2023-03-04T03:26:33;23.50;;;16.93;;
17414;SDS011;8825;48.086;16.426;2023-03-04T03:29:01;22.22;;;17.77;;
17414;SDS011;8825;48.086;16.426;2023-03-04T03:31:29;21.23;;;17.45;;
17414;SDS011;8825;48.086;16.426;2023-03-04T03:33:56;22.10;;;17.85;;
17414;SDS011;8825;48.086;16.426;2023-03-04T03:36:24;22.32;;;18.37;;
17414;SDS011;8825;48.086;16.426;2023-03-04T03:38:51;24.20;;;18.75;;
17414;SDS011;8825;48.086;16.426;2023-03-04T03:41:19;24.05;;;19.75;;
17414;SDS011;8825;48.086;16.426;2023-03-04T03:43:46;24.15;;;19.55;;
17414;SDS011;8825;48.086;16.426;2023-03-04T03:46:14;24.27;;;17.92;;
17414;SDS011;8825;48.086;16.426;2023-03-04T03:48:41;25.12;;;19.45;;
17414;SDS011;8825;48.086;16.426;2023-03-04T03:51:09;23.65;;;18.48;;
17414;SDS011;8825;48.086;16.426;2023-03-04T03:53:36;28.27;;;20.23;;
17414;SDS011;8825;48.086;16.426;2023-03-04T03:56:04;25.68;;;20.55;;
17414;SDS011;8825;48.086;16.426;2023-03-04T03:58:32;25.72;;;20.45;;
17414;SDS011;8825;48.086;16.426;2023-03-04T04:00:59;26.02;;;19.60;;
17414;SDS011;8825;48.086;16.426;2023-03-04T04:03:27;28.77;;;21.55;;
17414;SDS011;8825;48.086;16.426;2023-03-04T04:05:55;28.77;;;22.65;;
17414;SDS011;8825;48.086;16.426;2023-03-04T04:08:23;26.23;;;21.37;;
17414;SDS011;8825;48.086;16.426;2023-03-04T04:10:50;26.90;;;21.33;;
17414;SDS011;8825;48.086;16.426;2023-03-04T04:13:18;31.05;;;22.55;;
17414;SDS011;8825;48.086;16.426;2023-03-04T04:15:46;29.57;;;22.70;;
17414;SDS011;8825;48.086;16.426;2023-03-04T04:18:13;31.05;;;22.80;;
17414;SDS011;8825;48.086;16.426;2023-03-04T04:20:41;30.30;;;22.87;;
17414;SDS011;8825;48.086;16.426;2023-03-04T04:23:08;27.52;;;22.48;;
17414;SDS011;8825;48.086;16.426;2023-03-04T04:25:37;29.57;;;21.75;;
17414;SDS011;8825;48.086;16.426;2023-03-04T04:28:04;27.75;;;22.15;;
17414;SDS011;8825;48.086;16.426;2023-03-04T04:30:32;29.23;;;21.70;;
17414;SDS011;8825;48.086;16.426;2023-03-04T04:33:00;27.40;;;21.25;;
17414;SDS011;8825;48.086;16.426;2023-03-04T04:35:30;30.92;;;22.37;;
17414;SDS011;8825;48.086;16.426;2023-03-04T04:37:58;27.85;;;21.87;;
17414;SDS011;8825;48.086;16.426;2023-03-04T04:40:26;30.02;;;21.97;;
17414;SDS011;8825;48.086;16.426;2023-03-04T04:42:54;28.50;;;23.10;;
17414;SDS011;8825;48.086;16.426;2023-03-04T04:45:22;30.37;;;23.38;;
17414;SDS011;8825;48.086;16.426;2023-03-04T04:47:50;33.80;;;23.57;;
17414;SDS011;8825;48.086;16.426;2023-03-04T04:50:19;29.37;;;23.10;;
17414;SDS011;8825;48.086;16.426;2023-03-04T04:52:46;30.15;;;22.60;;
17414;SDS011;8825;48.086;16.426;2023-03-04T04:55:14;29.30;;;22.65;;
17414;SDS011;8825;48.086;16.426;2023-03-04T04:57:41;26.57;;;21.20;;
17414;SDS011;8825;48.086;16.426;2023-03-04T05:00:09;26.93;;;21.35;;
17414;SDS011;8825;48.086;16.426;2023-03-04T05:02:37;27.50;;;21.85;;
17414;SDS011;8825;48.086;16.426;2023-03-04T05:05:06;28.25;;;21.93;;
17414;SDS011;8825;48.086;16.426;2023-03-04T05:07:34;27.80;;;21.27;;
17414;SDS011;8825;48.086;16.426;2023-03-04T05:10:02;31.85;;;22.52;;
17414;SDS011;8825;48.086;16.426;2023-03-04T05:12:30;30.70;;;22.60;;
17414;SDS011;8825;48.086;16.426;2023-03-04T05:14:57;28.95;;;22.67;;
17414;SDS011;8825;48.086;16.426;2023-03-04T05:17:25;34.13;;;24.35;;
17414;SDS011;8825;48.086;16.426;2023-03-04T05:19:52;27.25;;;21.45;;
17414;SDS011;8825;48.086;16.426;2023-03-04T05:22:20;30.88;;;21.87;;
17414;SDS011;8825;48.086;16.426;2023-03-04T05:24:47;31.75;;;23.40;;
17414;SDS011;8825;48.086;16.426;2023-03-04T05:27:15;26.27;;;20.82;;
17414;SDS011;8825;48.086;16.426;2023-03-04T05:29:42;25.57;;;20.92;;
17414;SDS011;8825;48.086;16.426;2023-03-04T05:32:11;27.50;;;20.70;;
17414;SDS011;8825;48.086;16.426;2023-03-04T05:34:39;25.75;;;19.70;;
17414;SDS011;8825;48.086;16.426;2023-03-04T05:37:06;30.75;;;21.27;;
17414;SDS011;8825;48.086;16.426;2023-03-04T05:39:34;28.60;;;22.20;;
17414;SDS011;8825;48.086;16.426;2023-03-04T05:42:01;25.57;;;20.10;;
17414;SDS011;8825;48.086;16.426;2023-03-04T05:44:29;29.37;;;22.27;;
17414;SDS011;8825;48.086;16.426;2023-03-04T05:46:56;30.50;;;22.30;;
17414;SDS011;8825;48.086;16.426;2023-03-04T05:49:24;26.17;;;19.75;;
17414;SDS011;8825;48.086;16.426;2023-03-04T05:51:51;23.42;;;18.67;;
17414;SDS011;8825;48.086;16.426;2023-03-04T05:54:19;27.40;;;20.85;;
17414;SDS011;8825;48.086;16.426;2023-03-04T05:56:46;28.12;;;21.65;;
17414;SDS011;8825;48.086;16.426;2023-03-04T05:59:14;25.08;;;18.07;;
17414;SDS011;8825;48.086;16.426;2023-03-04T06:01:43;23.67;;;18.92;;
17414;SDS011;8825;48.086;16.426;2023-03-04T06:04:10;26.12;;;21.05;;
17414;SDS011;8825;48.086;16.426;2023-03-04T06:06:38;24.32;;;18.95;;
17414;SDS011;8825;48.086;16.426;2023-03-04T06:09:06;22.48;;;18.45;;
17414;SDS011;8825;48.086;16.426;2023-03-04T06:11:33;27.77;;;19.85;;
17414;SDS011;8825;48.086;16.426;2023-03-04T06:14:01;24.95;;;19.52;;
17414;SDS011;8825;48.086;16.426;2023-03-04T06:16:28;23.98;;;19.32;;
17414;SDS011;8825;48.086;16.426;2023-03-04T06:18:56;25.82;;;19.77;;
17414;SDS011;8825;48.086;16.426;2023-03-04T06:21:23;23.47;;;18.57;;
17414;SDS011;8825;48.086;16.426;2023-03-04T06:23:51;25.35;;;19.27;;
17414;SDS011;8825;48.086;16.426;2023-03-04T06:26:18;23.73;;;18.40;;
17414;SDS011;8825;48.086;16.426;2023-03-04T06:28:46;30.02;;;19.92;;
17414;SDS011;8825;48.086;16.426;2023-03-04T06:31:13;26.87;;;19.23;;
17414;SDS011;8825;48.086;16.426;2023-03-04T06:33:41;26.30;;;20.60;;
17414;SDS011;8825;48.086;16.426;2023-03-04T06:36:08;25.65;;;20.88;;
17414;SDS011;8825;48.086;16.426;2023-03-04T06:38:36;27.20;;;20.30;;
17414;SDS011;8825;48.086;16.426;2023-03-04T06:41:07;28.90;;;20.60;;
17414;SDS011;8825;48.086;16.426;2023-03-04T06:43:36;25.27;;;20.10;;
17414;SDS011;8825;48.086;16.426;2023-03-04T06:46:05;26.85;;;20.52;;
17414;SDS011;8825;48.086;16.426;2023-03-04T06:48:33;25.08;;;19.17;;
17414;SDS011;8825;48.086;16.426;2023-03-04T06:51:09;30.12;;;20.27;;
17414;SDS011;8825;48.086;16.426;2023-03-04T06:53:34;25.70;;;20.27;;
17414;SDS011;8825;48.086;16.426;2023-03-04T06:56:02;29.70;;;21.68;;
17414;SDS011;8825;48.086;16.426;2023-03-04T06:58:30;25.48;;;20.52;;
17414;SDS011;8825;48.086;16.426;2023-03-04T07:01:08;26.15;;;20.82;;
17414;SDS011;8825;48.086;16.426;2023-03-04T07:03:40;30.80;;;23.55;;
17414;SDS011;8825;48.086;16.426;2023-03-04T07:06:08;28.57;;;22.75;;
17414;SDS011;8825;48.086;16.426;2023-03-04T07:08:37;27.70;;;22.07;;
17414;SDS011;8825;48.086;16.426;2023-03-04T07:11:05;29.52;;;22.73;;
17414;SDS011;8825;48.086;16.426;2023-03-04T07:13:33;31.17;;;23.10;;
17414;SDS011;8825;48.086;16.426;2023-03-04T07:16:03;31.93;;;23.45;;
17414;SDS011;8825;48.086;16.426;2023-03-04T07:18:32;30.55;;;23.38;;
17414;SDS011;8825;48.086;16.426;2023-03-04T07:21:00;30.35;;;22.65;;
17414;SDS011;8825;48.086;16.426;2023-03-04T07:23:28;32.33;;;25.08;;
17414;SDS011;8825;48.086;16.426;2023-03-04T07:25:56;31.57;;;23.98;;
17414;SDS011;8825;48.086;16.426;2023-03-04T07:28:23;33.00;;;25.30;;
17414;SDS011;8825;48.086;16.426;2023-03-04T07:30:51;34.40;;;24.63;;
17414;SDS011;8825;48.086;16.426;2023-03-04T07:33:18;34.18;;;25.82;;
17414;SDS011;8825;48.086;16.426;2023-03-04T07:35:46;31.62;;;25.50;;
17414;SDS011;8825;48.086;16.426;2023-03-04T07:38:14;35.35;;;27.45;;
17414;SDS011;8825;48.086;16.426;2023-03-04T07:40:41;34.50;;;26.60;;
17414;SDS011;8825;48.086;16.426;2023-03-04T07:43:09;35.78;;;27.22;;
17414;SDS011;8825;48.086;16.426;2023-03-04T07:45:38;38.60;;;27.40;;
17414;SDS011;8825;48.086;16.426;2023-03-04T07:48:05;39.45;;;29.15;;
17414;SDS011;8825;48.086;16.426;2023-03-04T07:50:33;35.20;;;26.27;;
17414;SDS011;8825;48.086;16.426;2023-03-04T07:53:00;32.30;;;25.70;;
17414;SDS011;8825;48.086;16.426;2023-03-04T07:55:28;36.17;;;27.13;;
17414;SDS011;8825;48.086;16.426;2023-03-04T07:57:56;30.72;;;24.77;;
17414;SDS011;8825;48.086;16.426;2023-03-04T08:00:24;31.15;;;23.32;;
17414;SDS011;8825;48.086;16.426;2023-03-04T08:02:51;29.63;;;23.07;;
17414;SDS011;8825;48.086;16.426;2023-03-04T08:05:19;31.37;;;24.40;;
17414;SDS011;8825;48.086;16.426;2023-03-04T08:07:46;34.70;;;26.40;;
17414;SDS011;8825;48.086;16.426;2023-03-04T08:10:14;32.90;;;25.70;;
17414;SDS011;8825;48.086;16.426;2023-03-04T08:12:41;32.28;;;24.47;;
17414;SDS011;8825;48.086;16.426;2023-03-04T08:15:09;31.12;;;24.45;;
17414;SDS011;8825;48.086;16.426;2023-03-04T08:17:38;32.55;;;25.52;;
17414;SDS011;8825;48.086;16.426;2023-03-04T08:20:06;33.53;;;25.83;;
17414;SDS011;8825;48.086;16.426;2023-03-04T08:22:34;30.50;;;24.90;;
17414;SDS011;8825;48.086;16.426;2023-03-04T08:25:01;37.30;;;27.77;;
17414;SDS011;8825;48.086;16.426;2023-03-04T08:27:29;47.67;;;33.87;;
17414;SDS011;8825;48.086;16.426;2023-03-04T08:29:58;44.53;;;32.40;;
17414;SDS011;8825;48.086;16.426;2023-03-04T08:32:25;42.43;;;33.17;;
17414;SDS011;8825;48.086;16.426;2023-03-04T08:34:53;42.53;;;31.93;;
17414;SDS011;8825;48.086;16.426;2023-03-04T08:37:22;42.53;;;31.47;;
17414;SDS011;8825;48.086;16.426;2023-03-04T08:39:49;44.90;;;31.77;;
17414;SDS011;8825;48.086;16.426;2023-03-04T08:42:17;42.23;;;30.37;;
17414;SDS011;8825;48.086;16.426;2023-03-04T08:44:44;41.57;;;29.40;;
17414;SDS011;8825;48.086;16.426;2023-03-04T08:47:12;39.80;;;29.13;;
17414;SDS011;8825;48.086;16.426;2023-03-04T08:49:40;40.77;;;26.83;;
17414;SDS011;8825;48.086;16.426;2023-03-04T08:52:07;33.07;;;24.97;;
17414;SDS011;8825;48.086;16.426;2023-03-04T08:54:35;34.97;;;26.50;;
17414;SDS011;8825;48.086;16.426;2023-03-04T08:57:02;32.80;;;25.43;;
17414;SDS011;8825;48.086;16.426;2023-03-04T08:59:32;34.80;;;26.27;;
17414;SDS011;8825;48.086;16.426;2023-03-04T09:01:59;33.47;;;25.77;;
17414;SDS011;8825;48.086;16.426;2023-03-04T09:04:27;31.07;;;23.67;;
17414;SDS011;8825;48.086;16.426;2023-03-04T09:06:54;37.70;;;24.63;;
17414;SDS011;8825;48.086;16.426;2023-03-04T09:09:22;31.07;;;23.37;;
17414;SDS011;8825;48.086;16.426;2023-03-04T09:11:49;30.57;;;23.90;;
17414;SDS011;8825;48.086;16.426;2023-03-04T09:14:17;44.93;;;34.10;;
17414;SDS011;8825;48.086;16.426;2023-03-04T09:16:45;44.17;;;33.33;;
17414;SDS011;8825;48.086;16.426;2023-03-04T09:19:12;34.40;;;25.50;;
17414;SDS011;8825;48.086;16.426;2023-03-04T09:21:40;31.67;;;23.47;;
17414;SDS011;8825;48.086;16.426;2023-03-04T09:24:07;28.00;;;22.00;;
17414;SDS011;8825;48.086;16.426;2023-03-04T09:26:35;30.67;;;23.47;;
17414;SDS011;8825;48.086;16.426;2023-03-04T09:29:02;33.03;;;26.87;;
17414;SDS011;8825;48.086;16.426;2023-03-04T09:31:31;43.70;;;30.90;;
17414;SDS011;8825;48.086;16.426;2023-03-04T09:33:59;34.07;;;27.27;;
17414;SDS011;8825;48.086;16.426;2023-03-04T09:36:26;29.33;;;22.53;;
17414;SDS011;8825;48.086;16.426;2023-03-04T09:38:54;30.87;;;22.00;;
17414;SDS011;8825;48.086;16.426;2023-03-04T09:41:30;28.20;;;20.40;;
17414;SDS011;8825;48.086;16.426;2023-03-04T09:43:56;26.80;;;21.00;;
17414;SDS011;8825;48.086;16.426;2023-03-04T09:46:42;36.97;;;25.80;;
17414;SDS011;8825;48.086;16.426;2023-03-04T09:49:00;30.73;;;24.23;;
17414;SDS011;8825;48.086;16.426;2023-03-04T09:54:17;34.40;;;27.37;;
17414;SDS011;8825;48.086;16.426;2023-03-04T09:56:45;34.93;;;26.17;;
17414;SDS011;8825;48.086;16.426;2023-03-04T09:59:15;33.97;;;25.67;;
17414;SDS011;8825;48.086;16.426;2023-03-04T10:01:46;34.67;;;27.87;;
17414;SDS011;8825;48.086;16.426;2023-03-04T10:04:16;29.17;;;24.40;;
17414;SDS011;8825;48.086;16.426;2023-03-04T10:06:45;33.87;;;26.30;;
17414;SDS011;8825;48.086;16.426;2023-03-04T10:09:16;29.53;;;24.23;;
17414;SDS011;8825;48.086;16.426;2023-03-04T10:11:52;29.30;;;24.50;;
17414;SDS011;8825;48.086;16.426;2023-03-04T10:17:10;32.90;;;25.17;;
17414;SDS011;8825;48.086;16.426;2023-03-04T10:22:35;30.73;;;26.00;;
17414;SDS011;8825;48.086;16.426;2023-03-04T10:25:24;29.03;;;25.80;;
17414;SDS011;8825;48.086;16.426;2023-03-04T10:27:50;28.67;;;23.90;;
17414;SDS011;8825;48.086;16.426;2023-03-04T10:33:12;30.90;;;24.30;;
17414;SDS011;8825;48.086;16.426;2023-03-04T10:35:43;30.83;;;24.50;;
17414;SDS011;8825;48.086;16.426;2023-03-04T10:38:12;30.30;;;23.43;;
17414;SDS011;8825;48.086;16.426;2023-03-04T10:40:42;28.17;;;22.87;;
17414;SDS011;8825;48.086;16.426;2023-03-04T10:43:14;25.60;;;21.90;;
17414;SDS011;8825;48.086;16.426;2023-03-04T10:45:45;25.07;;;21.77;;
17414;SDS011;8825;48.086;16.426;2023-03-04T10:48:18;25.77;;;21.73;;
17414;SDS011;8825;48.086;16.426;2023-03-04T10:50:50;27.20;;;20.67;;
17414;SDS011;8825;48.086;16.426;2023-03-04T10:53:23;24.10;;;19.77;;
17414;SDS011;8825;48.086;16.426;2023-03-04T10:55:51;24.80;;;19.97;;
17414;SDS011;8825;48.086;16.426;2023-03-04T10:58:19;27.17;;;22.97;;
17414;SDS011;8825;48.086;16.426;2023-03-04T11:01:05;29.57;;;21.53;;
17414;SDS011;8825;48.086;16.426;2023-03-04T11:08:33;22.80;;;19.77;;
17414;SDS011;8825;48.086;16.426;2023-03-04T11:11:00;24.17;;;19.37;;
17414;SDS011;8825;48.086;16.426;2023-03-04T11:13:28;22.03;;;19.27;;
17414;SDS011;8825;48.086;16.426;2023-03-04T11:15:58;23.63;;;19.17;;
17414;SDS011;8825;48.086;16.426;2023-03-04T11:18:40;21.33;;;18.37;;
17414;SDS011;8825;48.086;16.426;2023-03-04T11:21:14;23.77;;;18.93;;
17414;SDS011;8825;48.086;16.426;2023-03-04T11:23:50;23.40;;;19.37;;
17414;SDS011;8825;48.086;16.426;2023-03-04T11:26:52;22.67;;;19.07;;
17414;SDS011;8825;48.086;16.426;2023-03-04T11:32:11;20.30;;;16.17;;
17414;SDS011;8825;48.086;16.426;2023-03-04T11:34:58;21.57;;;15.30;;
17414;SDS011;8825;48.086;16.426;2023-03-04T11:40:11;19.07;;;14.97;;
17414;SDS011;8825;48.086;16.426;2023-03-04T11:43:02;17.57;;;14.67;;
17414;SDS011;8825;48.086;16.426;2023-03-04T11:45:42;17.37;;;14.37;;
17414;SDS011;8825;48.086;16.426;2023-03-04T11:51:08;20.63;;;14.60;;
17414;SDS011;8825;48.086;16.426;2023-03-04T11:56:26;17.53;;;13.57;;
17414;SDS011;8825;48.086;16.426;2023-03-04T11:59:03;17.53;;;13.03;;
17414;SDS011;8825;48.086;16.426;2023-03-04T12:01:33;15.50;;;12.67;;
17414;SDS011;8825;48.086;16.426;2023-03-04T12:06:59;15.77;;;13.03;;
17414;SDS011;8825;48.086;16.426;2023-03-04T12:09:35;15.87;;;12.83;;
17414;SDS011;8825;48.086;16.426;2023-03-04T12:17:39;18.50;;;13.97;;
17414;SDS011;8825;48.086;16.426;2023-03-04T12:23:01;15.97;;;13.27;;
17414;SDS011;8825;48.086;16.426;2023-03-04T12:25:35;17.13;;;14.20;;
17414;SDS011;8825;48.086;16.426;2023-03-04T12:28:24;15.40;;;12.97;;
17414;SDS011;8825;48.086;16.426;2023-03-04T12:34:05;26.77;;;20.87;;
17414;SDS011;8825;48.086;16.426;2023-03-04T12:36:43;21.90;;;19.03;;
17414;SDS011;8825;48.086;16.426;2023-03-04T12:39:24;21.43;;;15.53;;
17414;SDS011;8825;48.086;16.426;2023-03-04T12:42:03;16.87;;;13.93;;
17414;SDS011;8825;48.086;16.426;2023-03-04T12:44:47;19.27;;;14.63;;
17414;SDS011;8825;48.086;16.426;2023-03-04T12:47:26;17.40;;;14.30;;
17414;SDS011;8825;48.086;16.426;2023-03-04T12:52:36;17.37;;;13.50;;
17414;SDS011;8825;48.086;16.426;2023-03-04T12:55:10;15.63;;;12.67;;
17414;SDS011;8825;48.086;16.426;2023-03-04T12:57:39;15.23;;;13.10;;
17414;SDS011;8825;48.086;16.426;2023-03-04T13:00:16;16.73;;;13.87;;
17414;SDS011;8825;48.086;16.426;2023-03-04T13:02:53;16.67;;;13.70;;
17414;SDS011;8825;48.086;16.426;2023-03-04T13:11:02;15.97;;;12.70;;
17414;SDS011;8825;48.086;16.426;2023-03-04T13:13:32;13.17;;;11.77;;
17414;SDS011;8825;48.086;16.426;2023-03-04T13:18:39;14.57;;;12.20;;
17414;SDS011;8825;48.086;16.426;2023-03-04T13:23:49;16.63;;;13.60;;
17414;SDS011;8825;48.086;16.426;2023-03-04T13:26:19;15.93;;;13.63;;
17414;SDS011;8825;48.086;16.426;2023-03-04T13:29:08;16.77;;;13.67;;
17414;SDS011;8825;48.086;16.426;2023-03-04T13:32:00;16.37;;;14.23;;
17414;SDS011;8825;48.086;16.426;2023-03-04T13:37:25;14.57;;;13.00;;
17414;SDS011;8825;48.086;16.426;2023-03-04T13:42:52;16.97;;;13.73;;
17414;SDS011;8825;48.086;16.426;2023-03-04T13:45:33;17.43;;;14.47;;
17414;SDS011;8825;48.086;16.426;2023-03-04T13:48:03;15.73;;;14.07;;
17414;SDS011;8825;48.086;16.426;2023-03-04T13:50:33;17.90;;;12.87;;
17414;SDS011;8825;48.086;16.426;2023-03-04T13:58:41;14.27;;;11.63;;
17414;SDS011;8825;48.086;16.426;2023-03-04T14:01:23;16.23;;;13.00;;
17414;SDS011;8825;48.086;16.426;2023-03-04T14:03:52;13.90;;;11.67;;
17414;SDS011;8825;48.086;16.426;2023-03-04T14:06:22;13.10;;;10.77;;
17414;SDS011;8825;48.086;16.426;2023-03-04T14:08:54;14.43;;;11.40;;
17414;SDS011;8825;48.086;16.426;2023-03-04T14:11:26;14.33;;;10.73;;
17414;SDS011;8825;48.086;16.426;2023-03-04T14:14:04;14.17;;;11.47;;
17414;SDS011;8825;48.086;16.426;2023-03-04T14:16:36;13.30;;;10.47;;
17414;SDS011;8825;48.086;16.426;2023-03-04T14:19:12;12.67;;;10.70;;
17414;SDS011;8825;48.086;16.426;2023-03-04T14:21:42;13.83;;;11.23;;
17414;SDS011;8825;48.086;16.426;2023-03-04T14:24:12;12.70;;;10.57;;
17414;SDS011;8825;48.086;16.426;2023-03-04T14:26:42;13.77;;;11.27;;
17414;SDS011;8825;48.086;16.426;2023-03-04T14:29:22;12.27;;;9.90;;
17414;SDS011;8825;48.086;16.426;2023-03-04T14:31:54;12.33;;;10.07;;
17414;SDS011;8825;48.086;16.426;2023-03-04T14:34:24;12.50;;;10.50;;
17414;SDS011;8825;48.086;16.426;2023-03-04T14:36:52;13.33;;;10.67;;
17414;SDS011;8825;48.086;16.426;2023-03-04T14:39:21;15.03;;;12.53;;
17414;SDS011;8825;48.086;16.426;2023-03-04T14:41:51;14.63;;;11.57;;
17414;SDS011;8825;48.086;16.426;2023-03-04T14:47:00;13.80;;;10.77;;
17414;SDS011;8825;48.086;16.426;2023-03-04T14:49:38;14.43;;;11.40;;
17414;SDS011;8825;48.086;16.426;2023-03-04T14:52:24;14.50;;;11.03;;
17414;SDS011;8825;48.086;16.426;2023-03-04T14:57:43;13.37;;;11.47;;
17414;SDS011;8825;48.086;16.426;2023-03-04T15:02:51;27.27;;;20.40;;
17414;SDS011;8825;48.086;16.426;2023-03-04T15:05:30;18.80;;;14.73;;
17414;SDS011;8825;48.086;16.426;2023-03-04T15:08:00;14.73;;;11.37;;
17414;SDS011;8825;48.086;16.426;2023-03-04T15:10:36;15.53;;;12.10;;
17414;SDS011;8825;48.086;16.426;2023-03-04T15:13:03;12.40;;;11.10;;
17414;SDS011;8825;48.086;16.426;2023-03-04T15:15:34;12.90;;;11.17;;
17414;SDS011;8825;48.086;16.426;2023-03-04T15:18:21;16.23;;;11.60;;
17414;SDS011;8825;48.086;16.426;2023-03-04T15:20:55;13.83;;;10.97;;
17414;SDS011;8825;48.086;16.426;2023-03-04T15:23:26;15.47;;;12.20;;
17414;SDS011;8825;48.086;16.426;2023-03-04T15:26:02;15.40;;;11.73;;
17414;SDS011;8825;48.086;16.426;2023-03-04T15:28:34;13.67;;;12.00;;
17414;SDS011;8825;48.086;16.426;2023-03-04T15:31:03;19.90;;;15.73;;
17414;SDS011;8825;48.086;16.426;2023-03-04T15:33:31;21.77;;;18.43;;
17414;SDS011;8825;48.086;16.426;2023-03-04T15:35:59;19.23;;;16.40;;
17414;SDS011;8825;48.086;16.426;2023-03-04T15:38:28;19.70;;;16.33;;
17414;SDS011;8825;48.086;16.426;2023-03-04T15:40:56;21.53;;;17.33;;
17414;SDS011;8825;48.086;16.426;2023-03-04T15:43:24;22.83;;;18.97;;
17414;SDS011;8825;48.086;16.426;2023-03-04T15:45:51;21.73;;;18.47;;
17414;SDS011;8825;48.086;16.426;2023-03-04T15:48:19;20.10;;;17.37;;
17414;SDS011;8825;48.086;16.426;2023-03-04T15:50:48;19.90;;;16.60;;
17414;SDS011;8825;48.086;16.426;2023-03-04T15:53:36;19.17;;;17.10;;
17414;SDS011;8825;48.086;16.426;2023-03-04T15:56:11;20.70;;;16.93;;